Terminal Aerodrome Forecast
Issued by NWS Cleveland, OH

Home | Current Version | Previous Version | Text Only | Print | Product List | Glossary Off
Versions: 1 2 3 4 5 6 7 8 9 10 11 12 13 14 15

000
FTUS41 KCLE 280500
TAFCAK
TAF
KCAK 280531Z 2806/2906 21014KT P6SM SCT120 BKN250 WS020/22040KT
     FM281400 21015G25KT P6SM BKN100
     FM281800 22020G32KT 5SM SHRA OVC035
      TEMPO 2818/2821 3SM TSRA OVC025CB
     FM282200 25015G25KT 5SM -SHRA OVC025
     FM290300 26010KT P6SM OVC035=

USA.gov is the U.S. government's official web portal to all federal, state and local government web resources and services.